Time;durP1;ratioP1;P1;durP2;ratioP2;P2;SDS_P1;SDS_P2;PMS_P1;PMS_P2;Temp;Humidity;BMP_temperature;BMP_pressure;BME280_temperature;BME280_humidity;BME280_pressure;Samples;Min_cycle;Max_cycle;Signal;HPM_P1;HPM_P2
2021/08/15 00:02:21;;;;;;;14.48;9.10;;;;;;;;;;5109118;27;20046;-68
2021/08/15 00:04:47;;;;;;;14.65;9.88;;;;;;;;;;5111734;27;20040;-68
2021/08/15 00:07:13;;;;;;;16.80;9.98;;;;;;;;;;5105158;27;20043;-68
2021/08/15 00:09:39;;;;;;;14.18;9.75;;;;;;;;;;5121240;27;20058;-68
2021/08/15 00:12:06;;;;;;;16.73;10.10;;;;;;;;;;5108725;27;20035;-68
2021/08/15 00:14:33;;;;;;;14.75;10.27;;;;;;;;;;5113988;27;20650;-68
2021/08/15 00:16:59;;;;;;;12.32;8.98;;;;;;;;;;5115991;27;20046;-68
2021/08/15 00:19:25;;;;;;;15.13;9.35;;;;;;;;;;5113777;27;20051;-68
2021/08/15 00:21:51;;;;;;;16.88;10.68;;;;;;;;;;5107176;27;20516;-68
2021/08/15 00:24:17;;;;;;;13.88;10.10;;;;;;;;;;5117418;27;20036;-68
2021/08/15 00:26:44;;;;;;;14.93;9.20;;;;;;;;;;5114242;27;20130;-68
2021/08/15 00:29:11;;;;;;;15.30;10.02;;;;;;;;;;5112201;27;20039;-69
2021/08/15 00:31:37;;;;;;;16.23;10.07;;;;;;;;;;5117874;27;20035;-69
2021/08/15 00:34:03;;;;;;;13.77;9.45;;;;;;;;;;5090436;28;20040;-69
2021/08/15 00:36:29;;;;;;;16.02;9.63;;;;;;;;;;5119776;27;20499;-69
2021/08/15 00:38:55;;;;;;;15.27;9.60;;;;;;;;;;5105539;27;20035;-69
2021/08/15 00:41:23;;;;;;;16.27;10.02;;;;;;;;;;5112505;27;20035;-69
2021/08/15 00:43:50;;;;;;;18.13;12.38;;;;;;;;;;5109407;27;20036;-69
2021/08/15 00:46:16;;;;;;;15.23;10.77;;;;;;;;;;5105737;27;20522;-69
2021/08/15 00:48:42;;;;;;;16.30;10.52;;;;;;;;;;5110831;27;20035;-69
2021/08/15 00:51:08;;;;;;;17.00;10.43;;;;;;;;;;5113071;27;20071;-69
2021/08/15 00:53:39;;;;;;;15.15;10.57;;;;;;;;;;5113316;27;20096;-69
2021/08/15 00:56:06;;;;;;;17.17;10.10;;;;;;;;;;5113487;27;20082;-69
2021/08/15 00:58:39;;;;;;;12.65;8.82;;;;;;;;;;5107270;27;20089;-69
2021/08/15 01:01:06;;;;;;;14.52;9.63;;;;;;;;;;5112298;27;20466;-69
2021/08/15 01:03:34;;;;;;;16.13;10.05;;;;;;;;;;5113750;27;20039;-69
2021/08/15 01:06:01;;;;;;;14.23;8.82;;;;;;;;;;5115717;27;20440;-69
2021/08/15 01:08:29;;;;;;;16.40;9.05;;;;;;;;;;5104876;27;20052;-69
2021/08/15 01:10:55;;;;;;;15.40;9.95;;;;;;;;;;5117675;27;20364;-69
2021/08/15 01:13:22;;;;;;;13.60;8.90;;;;;;;;;;5113387;27;20141;-69
2021/08/15 01:15:48;;;;;;;16.13;8.75;;;;;;;;;;5106995;27;20122;-69
2021/08/15 01:18:22;;;;;;;13.68;9.88;;;;;;;;;;5114341;27;20027;-69
2021/08/15 01:20:50;;;;;;;14.65;9.45;;;;;;;;;;5110342;27;20365;-69
2021/08/15 01:23:16;;;;;;;12.13;8.35;;;;;;;;;;5118323;27;20427;-69
2021/08/15 01:25:42;;;;;;;13.00;8.48;;;;;;;;;;5107176;27;20043;-69
2021/08/15 01:28:14;;;;;;;16.48;9.27;;;;;;;;;;5112487;27;20693;-69
2021/08/15 01:30:40;;;;;;;11.73;9.18;;;;;;;;;;5110216;27;20042;-68
2021/08/15 01:33:08;;;;;;;15.15;9.60;;;;;;;;;;5114398;27;20040;-68
2021/08/15 01:35:34;;;;;;;14.07;9.32;;;;;;;;;;5110875;27;20535;-68
2021/08/15 01:38:01;;;;;;;13.82;9.82;;;;;;;;;;5113147;27;20067;-68
2021/08/15 01:40:27;;;;;;;12.90;9.32;;;;;;;;;;5113702;27;20035;-69
2021/08/15 01:42:53;;;;;;;14.00;8.73;;;;;;;;;;5108907;27;20047;-69
2021/08/15 01:45:19;;;;;;;14.68;9.20;;;;;;;;;;5105079;27;20046;-69
2021/08/15 01:47:45;;;;;;;16.38;8.60;;;;;;;;;;5118122;27;20468;-69
2021/08/15 01:50:12;;;;;;;13.30;9.07;;;;;;;;;;5107402;27;20244;-69
2021/08/15 01:52:38;;;;;;;12.70;9.20;;;;;;;;;;5112020;27;20043;-69
2021/08/15 01:55:07;;;;;;;14.45;9.30;;;;;;;;;;5102251;27;20064;-69
2021/08/15 01:57:34;;;;;;;12.77;8.27;;;;;;;;;;5118632;27;20073;-69
2021/08/15 02:00:00;;;;;;;13.93;8.35;;;;;;;;;;5108802;27;20079;-69
2021/08/15 02:02:26;;;;;;;13.57;8.27;;;;;;;;;;5099533;27;20420;-69
2021/08/15 02:04:52;;;;;;;12.30;7.80;;;;;;;;;;5119861;27;20027;-69
2021/08/15 02:07:18;;;;;;;13.77;8.05;;;;;;;;;;5112753;27;20108;-67
2021/08/15 02:09:44;;;;;;;11.93;8.10;;;;;;;;;;5108177;27;20443;-67
2021/08/15 02:12:11;;;;;;;9.85;7.57;;;;;;;;;;5108594;27;20514;-67
2021/08/15 02:14:37;;;;;;;10.98;8.30;;;;;;;;;;5117400;27;20034;-67
2021/08/15 02:17:03;;;;;;;12.50;7.43;;;;;;;;;;5105887;27;20042;-67
2021/08/15 02:19:29;;;;;;;13.00;8.65;;;;;;;;;;5113172;27;20043;-67
2021/08/15 02:21:55;;;;;;;10.38;7.55;;;;;;;;;;5108989;27;20180;-67
2021/08/15 02:24:21;;;;;;;10.93;7.55;;;;;;;;;;5117685;27;20046;-67
2021/08/15 02:26:47;;;;;;;10.43;7.78;;;;;;;;;;5105843;27;20046;-67
2021/08/15 02:29:14;;;;;;;11.45;7.97;;;;;;;;;;5114367;27;20053;-68
2021/08/15 02:31:40;;;;;;;14.32;8.25;;;;;;;;;;5112072;27;20055;-68
2021/08/15 02:34:06;;;;;;;12.77;8.88;;;;;;;;;;5111640;27;20035;-68
2021/08/15 02:36:33;;;;;;;9.48;7.43;;;;;;;;;;5106538;27;20047;-68
2021/08/15 02:38:59;;;;;;;10.15;7.88;;;;;;;;;;5110845;27;20396;-68
2021/08/15 02:41:25;;;;;;;14.57;8.50;;;;;;;;;;5118868;28;20043;-68
2021/08/15 02:43:51;;;;;;;14.35;7.55;;;;;;;;;;5107153;28;20039;-68
2021/08/15 02:46:17;;;;;;;12.10;7.38;;;;;;;;;;5092944;28;20067;-68
2021/08/15 02:48:43;;;;;;;14.57;8.82;;;;;;;;;;5108224;28;20583;-68
2021/08/15 02:51:10;;;;;;;14.35;8.52;;;;;;;;;;5116380;28;20050;-68
2021/08/15 02:53:36;;;;;;;12.48;8.52;;;;;;;;;;5103262;28;20032;-68
2021/08/15 02:56:02;;;;;;;12.18;8.35;;;;;;;;;;5112166;28;20043;-68
2021/08/15 02:58:28;;;;;;;10.25;8.38;;;;;;;;;;5104733;28;20099;-68
2021/08/15 03:00:54;;;;;;;12.65;8.55;;;;;;;;;;5117928;28;20039;-68
2021/08/15 03:03:21;;;;;;;13.48;7.85;;;;;;;;;;5107822;28;20107;-68
2021/08/15 03:05:47;;;;;;;10.43;7.55;;;;;;;;;;5110656;28;20051;-68
2021/08/15 03:08:14;;;;;;;10.80;8.20;;;;;;;;;;5111345;27;20035;-68
2021/08/15 03:10:40;;;;;;;13.07;8.73;;;;;;;;;;5116184;27;20431;-68
2021/08/15 03:13:06;;;;;;;10.98;8.00;;;;;;;;;;5109524;27;20035;-68
2021/08/15 03:15:35;;;;;;;12.65;8.73;;;;;;;;;;5117636;27;20468;-68
2021/08/15 03:18:01;;;;;;;11.15;8.45;;;;;;;;;;5121746;27;20042;-68
2021/08/15 03:20:27;;;;;;;14.90;9.00;;;;;;;;;;5111261;27;20039;-68
2021/08/15 03:22:53;;;;;;;16.45;9.05;;;;;;;;;;5085369;28;20174;-68
2021/08/15 03:25:20;;;;;;;12.27;7.90;;;;;;;;;;5112809;27;20040;-68
2021/08/15 03:27:46;;;;;;;13.00;8.57;;;;;;;;;;5117375;27;20039;-68
2021/08/15 03:30:13;;;;;;;13.95;8.85;;;;;;;;;;5108019;27;20036;-68
2021/08/15 03:32:39;;;;;;;15.45;8.93;;;;;;;;;;5118877;27;20046;-68
2021/08/15 03:35:05;;;;;;;14.05;9.27;;;;;;;;;;5116044;27;20118;-68
2021/08/15 03:37:31;;;;;;;14.93;8.82;;;;;;;;;;5114720;27;20097;-68
2021/08/15 03:39:57;;;;;;;14.85;8.18;;;;;;;;;;5111953;27;20027;-68
2021/08/15 03:42:24;;;;;;;15.88;8.35;;;;;;;;;;5117334;27;20055;-68
2021/08/15 03:44:50;;;;;;;12.38;7.35;;;;;;;;;;5112557;27;20036;-68
2021/08/15 03:47:16;;;;;;;12.90;7.97;;;;;;;;;;5120813;27;20069;-68
2021/08/15 03:49:42;;;;;;;11.68;8.23;;;;;;;;;;5108234;27;20441;-68
2021/08/15 03:52:08;;;;;;;11.13;7.57;;;;;;;;;;5119082;27;20088;-68
2021/08/15 03:54:35;;;;;;;12.05;8.07;;;;;;;;;;5109852;27;20047;-68
2021/08/15 03:57:01;;;;;;;11.73;8.43;;;;;;;;;;5114370;27;20051;-68
2021/08/15 03:59:27;;;;;;;13.45;8.23;;;;;;;;;;5120248;27;20055;-68
2021/08/15 04:01:53;;;;;;;11.32;7.90;;;;;;;;;;5110662;27;20031;-68
2021/08/15 04:04:19;;;;;;;13.65;8.57;;;;;;;;;;5112408;27;20040;-68
2021/08/15 04:06:46;;;;;;;12.23;7.88;;;;;;;;;;5092710;27;20035;-68
2021/08/15 04:09:12;;;;;;;12.38;9.18;;;;;;;;;;5119650;27;20405;-68
2021/08/15 04:11:39;;;;;;;14.63;8.30;;;;;;;;;;5107031;27;20104;-68
2021/08/15 04:14:05;;;;;;;13.27;8.10;;;;;;;;;;5110962;27;20115;-68
2021/08/15 04:16:31;;;;;;;12.15;7.75;;;;;;;;;;5110896;27;20372;-68
2021/08/15 04:18:57;;;;;;;10.30;7.80;;;;;;;;;;5116135;27;20050;-68
2021/08/15 04:21:23;;;;;;;14.75;8.50;;;;;;;;;;5085145;27;20361;-68
2021/08/15 04:23:51;;;;;;;10.43;7.55;;;;;;;;;;5112631;27;20462;-68
2021/08/15 04:26:17;;;;;;;12.27;7.75;;;;;;;;;;5113017;27;20038;-68
2021/08/15 04:28:43;;;;;;;12.48;7.25;;;;;;;;;;5116614;27;20399;-68
2021/08/15 04:31:09;;;;;;;11.95;7.50;;;;;;;;;;5107359;27;20380;-68
2021/08/15 04:33:36;;;;;;;9.90;7.75;;;;;;;;;;5109835;27;20050;-68
2021/08/15 04:36:02;;;;;;;11.25;7.57;;;;;;;;;;5121889;27;20044;-68
2021/08/15 04:38:29;;;;;;;10.15;7.95;;;;;;;;;;5110981;27;20406;-68
2021/08/15 04:40:55;;;;;;;10.50;7.93;;;;;;;;;;5108000;27;20104;-68
2021/08/15 04:43:22;;;;;;;11.77;7.82;;;;;;;;;;5110732;27;20387;-68
2021/08/15 04:45:54;;;;;;;10.90;8.38;;;;;;;;;;5119944;27;20441;-68
2021/08/15 04:48:22;;;;;;;10.52;7.95;;;;;;;;;;5108688;27;20104;-68
2021/08/15 04:50:51;;;;;;;13.00;7.38;;;;;;;;;;5112507;27;20059;-68
2021/08/15 04:53:17;;;;;;;11.15;7.63;;;;;;;;;;5109220;27;20491;-68
2021/08/15 04:55:43;;;;;;;12.10;8.73;;;;;;;;;;5115457;27;20046;-68
2021/08/15 04:58:09;;;;;;;9.50;7.65;;;;;;;;;;5105097;27;20043;-68
2021/08/15 05:00:35;;;;;;;11.88;7.95;;;;;;;;;;5113701;27;20042;-69
2021/08/15 05:03:01;;;;;;;11.07;8.13;;;;;;;;;;5096850;28;20039;-69
2021/08/15 05:05:27;;;;;;;10.68;8.82;;;;;;;;;;5113060;27;20399;-69
2021/08/15 05:07:54;;;;;;;12.65;9.18;;;;;;;;;;5102283;27;20119;-69
2021/08/15 05:10:20;;;;;;;10.80;8.23;;;;;;;;;;5101253;27;20376;-69
2021/08/15 05:12:46;;;;;;;12.43;8.82;;;;;;;;;;5112355;27;20047;-69
2021/08/15 05:15:12;;;;;;;14.40;8.85;;;;;;;;;;5114760;27;20043;-69
2021/08/15 05:17:38;;;;;;;13.32;7.72;;;;;;;;;;5109649;27;20043;-69
2021/08/15 05:20:05;;;;;;;11.25;8.05;;;;;;;;;;5111056;27;20069;-69
2021/08/15 05:22:31;;;;;;;10.20;7.65;;;;;;;;;;5113355;27;20512;-69
2021/08/15 05:24:57;;;;;;;14.57;7.95;;;;;;;;;;5106138;27;20581;-69
2021/08/15 05:27:23;;;;;;;13.50;8.88;;;;;;;;;;5115868;27;20042;-69
2021/08/15 05:29:51;;;;;;;11.15;7.80;;;;;;;;;;5112692;27;20130;-69
2021/08/15 05:32:17;;;;;;;15.38;8.57;;;;;;;;;;5115409;27;20047;-69
2021/08/15 05:34:43;;;;;;;11.63;8.13;;;;;;;;;;5105865;27;20476;-69
2021/08/15 05:37:10;;;;;;;16.73;9.32;;;;;;;;;;5116375;27;20047;-69
2021/08/15 05:39:36;;;;;;;12.82;8.60;;;;;;;;;;5112049;27;20051;-69
2021/08/15 05:42:02;;;;;;;12.77;8.40;;;;;;;;;;5114238;27;20439;-69
2021/08/15 05:44:29;;;;;;;15.07;8.82;;;;;;;;;;5105918;27;20066;-69
2021/08/15 05:46:55;;;;;;;14.27;8.60;;;;;;;;;;5098539;28;20071;-69
2021/08/15 05:49:21;;;;;;;13.32;8.25;;;;;;;;;;5109632;27;20108;-69
2021/08/15 05:51:47;;;;;;;12.20;8.10;;;;;;;;;;5111938;27;20054;-69
2021/08/15 05:54:13;;;;;;;11.98;8.07;;;;;;;;;;5106331;27;20036;-69
2021/08/15 05:56:40;;;;;;;14.25;8.52;;;;;;;;;;5121278;27;20095;-69
2021/08/15 05:59:06;;;;;;;11.15;7.78;;;;;;;;;;5114515;27;20073;-69
2021/08/15 06:01:33;;;;;;;11.90;8.68;;;;;;;;;;5102552;27;20035;-69
2021/08/15 06:04:02;;;;;;;11.38;7.57;;;;;;;;;;5113236;27;20043;-69
2021/08/15 06:06:29;;;;;;;11.98;7.88;;;;;;;;;;5113140;27;20051;-69
2021/08/15 06:08:55;;;;;;;12.07;7.72;;;;;;;;;;5085772;27;20059;-69
2021/08/15 06:11:21;;;;;;;8.90;7.53;;;;;;;;;;5108768;27;20375;-69
2021/08/15 06:13:48;;;;;;;9.88;7.63;;;;;;;;;;5117425;27;20476;-69
2021/08/15 06:16:15;;;;;;;14.15;7.25;;;;;;;;;;5107903;27;20047;-69
2021/08/15 06:18:41;;;;;;;11.32;7.20;;;;;;;;;;5114363;27;20507;-69
2021/08/15 06:21:07;;;;;;;13.07;7.40;;;;;;;;;;5106719;27;20102;-69
2021/08/15 06:23:33;;;;;;;9.90;6.82;;;;;;;;;;5115425;27;20419;-69
2021/08/15 06:26:00;;;;;;;12.23;6.90;;;;;;;;;;5110569;27;20047;-69
2021/08/15 06:28:26;;;;;;;9.60;7.10;;;;;;;;;;5112202;27;20038;-69
2021/08/15 06:30:52;;;;;;;11.00;7.15;;;;;;;;;;5110103;27;20406;-69
2021/08/15 06:33:18;;;;;;;10.48;6.85;;;;;;;;;;5116805;27;20050;-69
2021/08/15 06:35:45;;;;;;;9.20;6.85;;;;;;;;;;5103622;27;20053;-69
2021/08/15 06:38:11;;;;;;;9.10;6.28;;;;;;;;;;5109781;27;20436;-69
2021/08/15 06:40:37;;;;;;;10.55;6.82;;;;;;;;;;5116290;27;20036;-69
2021/08/15 06:43:07;;;;;;;11.07;6.57;;;;;;;;;;5108228;28;20471;-69
2021/08/15 06:45:33;;;;;;;10.93;7.78;;;;;;;;;;5111202;28;20452;-69
2021/08/15 06:48:00;;;;;;;11.35;6.35;;;;;;;;;;5108453;28;20047;-69
2021/08/15 06:50:26;;;;;;;10.75;6.55;;;;;;;;;;5113937;28;20040;-69
2021/08/15 06:52:52;;;;;;;8.57;6.05;;;;;;;;;;5105053;28;20047;-69
2021/08/15 06:55:18;;;;;;;10.02;6.47;;;;;;;;;;5111993;28;20483;-69
2021/08/15 06:57:44;;;;;;;10.65;5.90;;;;;;;;;;5076330;28;20143;-69
2021/08/15 07:00:10;;;;;;;11.07;6.32;;;;;;;;;;5114835;28;20130;-69
2021/08/15 07:02:37;;;;;;;8.68;5.90;;;;;;;;;;5105244;28;20066;-69
2021/08/15 07:05:04;;;;;;;7.57;6.07;;;;;;;;;;5109860;28;20038;-69
2021/08/15 07:07:31;;;;;;;9.57;5.68;;;;;;;;;;5111087;28;20031;-69
2021/08/15 07:09:57;;;;;;;9.43;5.95;;;;;;;;;;5112726;28;20057;-69
2021/08/15 07:12:23;;;;;;;12.38;6.63;;;;;;;;;;5078456;28;20127;-70
2021/08/15 07:14:49;;;;;;;10.05;5.60;;;;;;;;;;5115245;28;20403;-70
2021/08/15 07:17:15;;;;;;;7.60;4.97;;;;;;;;;;5098275;28;20301;-69
2021/08/15 07:19:41;;;;;;;9.65;5.97;;;;;;;;;;5103263;28;20047;-69
2021/08/15 07:22:07;;;;;;;9.48;5.70;;;;;;;;;;5110694;28;20081;-69
2021/08/15 07:24:33;;;;;;;8.13;5.05;;;;;;;;;;5109332;28;20036;-69
2021/08/15 07:27:00;;;;;;;8.60;5.20;;;;;;;;;;5089161;28;20376;-69
2021/08/15 07:29:26;;;;;;;7.18;4.53;;;;;;;;;;5104093;28;20480;-69
2021/08/15 07:31:53;;;;;;;6.95;4.97;;;;;;;;;;5114104;28;20491;-69
2021/08/15 07:34:20;;;;;;;7.40;4.90;;;;;;;;;;5111919;28;20044;-69
2021/08/15 07:36:46;;;;;;;9.55;4.60;;;;;;;;;;5111153;28;20088;-69
2021/08/15 07:39:12;;;;;;;10.45;5.30;;;;;;;;;;5103598;28;20039;-69
2021/08/15 07:41:39;;;;;;;8.82;5.30;;;;;;;;;;5114209;28;20047;-69
2021/08/15 07:44:05;;;;;;;8.73;5.13;;;;;;;;;;5108203;28;20050;-69
2021/08/15 07:46:31;;;;;;;10.05;5.60;;;;;;;;;;5108740;28;20384;-69
2021/08/15 07:48:58;;;;;;;8.57;4.53;;;;;;;;;;5103241;28;20461;-69
2021/08/15 07:51:24;;;;;;;9.05;4.40;;;;;;;;;;5115039;28;20059;-69
2021/08/15 07:53:51;;;;;;;7.38;4.03;;;;;;;;;;5110032;27;20032;-69
2021/08/15 07:56:17;;;;;;;8.63;5.00;;;;;;;;;;5110104;27;20031;-69
2021/08/15 07:58:43;;;;;;;6.05;4.47;;;;;;;;;;5102139;27;20039;-69
2021/08/15 08:01:09;;;;;;;6.57;4.22;;;;;;;;;;5113692;27;20042;-69
2021/08/15 08:03:35;;;;;;;9.27;4.72;;;;;;;;;;5110353;27;20058;-69
2021/08/15 08:06:02;;;;;;;9.20;4.90;;;;;;;;;;5108347;27;20071;-69
2021/08/15 08:08:28;;;;;;;8.73;5.05;;;;;;;;;;5119094;27;20046;-69
2021/08/15 08:10:54;;;;;;;8.15;4.70;;;;;;;;;;5108668;27;20063;-69
2021/08/15 08:13:20;;;;;;;9.27;4.80;;;;;;;;;;5113993;27;20111;-69
2021/08/15 08:15:47;;;;;;;7.70;4.70;;;;;;;;;;5107470;27;20097;-69
2021/08/15 08:18:13;;;;;;;8.68;4.85;;;;;;;;;;5102717;27;20044;-70
2021/08/15 08:20:40;;;;;;;6.95;4.68;;;;;;;;;;5109459;27;20446;-70
2021/08/15 08:23:08;;;;;;;8.85;5.10;;;;;;;;;;5081878;28;20502;-70
2021/08/15 08:25:34;;;;;;;7.32;4.57;;;;;;;;;;5111455;27;20088;-70
2021/08/15 08:28:01;;;;;;;9.18;4.65;;;;;;;;;;5116766;27;20407;-70
2021/08/15 08:30:27;;;;;;;8.77;4.90;;;;;;;;;;5080286;28;20039;-70
2021/08/15 08:32:53;;;;;;;7.50;4.65;;;;;;;;;;5114653;27;20032;-70
2021/08/15 08:35:20;;;;;;;8.88;4.68;;;;;;;;;;5114710;27;20052;-70
2021/08/15 08:37:47;;;;;;;7.88;4.20;;;;;;;;;;5113819;27;20035;-70
2021/08/15 08:40:14;;;;;;;8.18;4.35;;;;;;;;;;5114648;27;20053;-70
2021/08/15 08:42:42;;;;;;;8.60;4.53;;;;;;;;;;5109119;27;20032;-71
2021/08/15 08:45:08;;;;;;;7.38;4.30;;;;;;;;;;5119507;27;20123;-71
2021/08/15 08:47:34;;;;;;;8.30;4.63;;;;;;;;;;5108747;27;20115;-71
2021/08/15 08:50:01;;;;;;;9.20;4.57;;;;;;;;;;5117575;27;20043;-71
2021/08/15 08:52:31;;;;;;;8.02;4.72;;;;;;;;;;5111123;27;20603;-71
2021/08/15 08:54:58;;;;;;;7.47;3.95;;;;;;;;;;5119082;27;20062;-71
2021/08/15 08:57:24;;;;;;;7.32;4.63;;;;;;;;;;5108538;27;20043;-71
2021/08/15 08:59:50;;;;;;;9.73;4.80;;;;;;;;;;5113364;27;20037;-71
2021/08/15 09:02:16;;;;;;;8.52;4.38;;;;;;;;;;5109106;27;20043;-71
2021/08/15 09:04:43;;;;;;;8.25;4.43;;;;;;;;;;5100374;27;20047;-71
2021/08/15 09:07:16;;;;;;;8.85;4.55;;;;;;;;;;5104004;27;20554;-71
2021/08/15 09:09:58;;;;;;;8.50;4.20;;;;;;;;;;5109842;27;20464;-71
2021/08/15 09:12:37;;;;;;;8.60;4.80;;;;;;;;;;5113216;27;20619;-71
2021/08/15 09:15:20;;;;;;;7.25;4.30;;;;;;;;;;5117767;27;20545;-71
2021/08/15 09:17:50;;;;;;;7.67;4.37;;;;;;;;;;5106343;27;20027;-71
2021/08/15 09:20:37;;;;;;;7.53;4.22;;;;;;;;;;5116130;27;20103;-71
2021/08/15 09:23:22;;;;;;;7.57;4.35;;;;;;;;;;5074201;28;20055;-71
2021/08/15 09:26:08;;;;;;;10.48;4.38;;;;;;;;;;5120112;27;20035;-71
2021/08/15 09:28:34;;;;;;;9.00;4.63;;;;;;;;;;5115314;27;20062;-71
2021/08/15 09:31:14;;;;;;;7.60;4.90;;;;;;;;;;5113190;27;20039;-71
2021/08/15 09:33:41;;;;;;;7.40;4.20;;;;;;;;;;5102185;27;20429;-71
2021/08/15 09:36:10;;;;;;;9.43;4.43;;;;;;;;;;5114965;27;20119;-71
2021/08/15 09:38:44;;;;;;;6.70;4.38;;;;;;;;;;5111133;27;20031;-71
2021/08/15 09:41:26;;;;;;;8.40;4.50;;;;;;;;;;5083412;28;20488;-71
2021/08/15 09:44:11;;;;;;;8.07;4.72;;;;;;;;;;5106324;27;20499;-72
2021/08/15 09:46:56;;;;;;;8.23;4.18;;;;;;;;;;5107942;27;20039;-72
2021/08/15 09:49:22;;;;;;;8.45;4.40;;;;;;;;;;5101941;27;20040;-72
2021/08/15 09:51:48;;;;;;;7.57;4.45;;;;;;;;;;5115779;27;20452;-72
2021/08/15 09:54:18;;;;;;;9.50;4.60;;;;;;;;;;5105705;27;20039;-72
2021/08/15 09:56:44;;;;;;;7.72;4.07;;;;;;;;;;5113151;27;20078;-72
2021/08/15 09:59:18;;;;;;;7.93;4.20;;;;;;;;;;5108471;27;20164;-72
2021/08/15 10:01:45;;;;;;;6.45;4.15;;;;;;;;;;5115093;27;20103;-72
2021/08/15 10:04:12;;;;;;;6.57;4.30;;;;;;;;;;5104659;27;20095;-71
2021/08/15 10:06:43;;;;;;;7.22;4.20;;;;;;;;;;5114488;27;20044;-71
2021/08/15 10:09:10;;;;;;;6.25;4.30;;;;;;;;;;5108779;27;20279;-71
2021/08/15 10:11:36;;;;;;;7.32;4.47;;;;;;;;;;5112312;27;20036;-71
2021/08/15 10:14:03;;;;;;;8.13;4.50;;;;;;;;;;5117456;27;20027;-71
2021/08/15 10:16:35;;;;;;;8.50;4.10;;;;;;;;;;5107076;27;20472;-70
2021/08/15 10:19:04;;;;;;;7.93;4.38;;;;;;;;;;5115657;27;20061;-71
2021/08/15 10:21:31;;;;;;;7.28;4.28;;;;;;;;;;5108771;27;20054;-71
2021/08/15 10:24:07;;;;;;;6.80;4.90;;;;;;;;;;5111161;27;20118;-71
2021/08/15 10:26:36;;;;;;;5.85;4.20;;;;;;;;;;5108125;27;20043;-71
2021/08/15 10:29:03;;;;;;;8.75;4.30;;;;;;;;;;5117033;27;20080;-71
2021/08/15 10:31:48;;;;;;;9.15;4.63;;;;;;;;;;5107825;27;20463;-71
2021/08/15 10:34:14;;;;;;;8.15;4.07;;;;;;;;;;5106688;28;20043;-72
2021/08/15 10:36:42;;;;;;;9.48;4.68;;;;;;;;;;5110490;27;20051;-72
2021/08/15 10:39:28;;;;;;;6.55;4.20;;;;;;;;;;5116954;27;20397;-71
2021/08/15 10:41:54;;;;;;;9.48;4.32;;;;;;;;;;5108076;28;20066;-72
2021/08/15 10:44:21;;;;;;;7.88;4.50;;;;;;;;;;5107897;27;20104;-71
2021/08/15 10:47:19;;;;;;;7.53;4.50;;;;;;;;;;5109667;28;20050;-72
2021/08/15 10:49:49;;;;;;;7.78;4.55;;;;;;;;;;5063011;28;20055;-72
2021/08/15 10:52:27;;;;;;;6.38;3.67;;;;;;;;;;5109974;28;20386;-72
2021/08/15 10:54:59;;;;;;;6.22;4.03;;;;;;;;;;5110587;28;20027;-72
2021/08/15 10:57:34;;;;;;;7.05;4.13;;;;;;;;;;5105458;28;20047;-72
2021/08/15 11:00:00;;;;;;;9.23;4.15;;;;;;;;;;5113306;28;20475;-72
2021/08/15 11:02:33;;;;;;;9.70;4.65;;;;;;;;;;5107718;28;20043;-71
2021/08/15 11:04:59;;;;;;;5.72;3.90;;;;;;;;;;5110655;28;20054;-71
2021/08/15 11:07:34;;;;;;;5.97;3.90;;;;;;;;;;5104385;28;20046;-71
2021/08/15 11:10:00;;;;;;;7.50;4.10;;;;;;;;;;5116189;28;20075;-71
2021/08/15 11:12:26;;;;;;;7.20;3.63;;;;;;;;;;5110991;28;20039;-71
2021/08/15 11:15:00;;;;;;;7.05;3.40;;;;;;;;;;5113813;28;20031;-71
2021/08/15 11:17:27;;;;;;;5.63;3.83;;;;;;;;;;5108375;28;20035;-71
2021/08/15 11:19:53;;;;;;;5.65;3.70;;;;;;;;;;5117050;28;20110;-71
2021/08/15 11:22:24;;;;;;;7.25;3.75;;;;;;;;;;5105906;28;20062;-71
2021/08/15 11:24:55;;;;;;;8.45;4.07;;;;;;;;;;5110161;28;20047;-71
2021/08/15 11:27:28;;;;;;;6.68;3.90;;;;;;;;;;5107268;27;20510;-71
2021/08/15 11:29:55;;;;;;;7.10;3.70;;;;;;;;;;5119993;27;20039;-71
2021/08/15 11:32:23;;;;;;;5.85;3.70;;;;;;;;;;5109584;27;20039;-71
2021/08/15 11:35:00;;;;;;;5.78;3.55;;;;;;;;;;5112761;27;20035;-71
2021/08/15 11:37:31;;;;;;;6.75;4.10;;;;;;;;;;5111179;27;20044;-71
2021/08/15 11:39:58;;;;;;;7.22;3.47;;;;;;;;;;5123015;27;20035;-72
2021/08/15 11:42:25;;;;;;;6.65;4.28;;;;;;;;;;5118469;27;20039;-71
2021/08/15 11:45:01;;;;;;;6.32;3.60;;;;;;;;;;5106115;27;20040;-71
2021/08/15 11:47:28;;;;;;;5.68;3.50;;;;;;;;;;5119892;27;20032;-71
2021/08/15 11:49:55;;;;;;;4.03;2.70;;;;;;;;;;5082249;27;20059;-71
2021/08/15 11:52:25;;;;;;;7.25;3.47;;;;;;;;;;5109063;27;20035;-71
2021/08/15 11:54:53;;;;;;;5.50;3.03;;;;;;;;;;5109237;27;20040;-71
2021/08/15 11:57:20;;;;;;;5.80;3.03;;;;;;;;;;5120235;27;20457;-71
2021/08/15 11:59:47;;;;;;;4.72;3.33;;;;;;;;;;5110641;27;20048;-71
2021/08/15 12:02:15;;;;;;;6.80;3.00;;;;;;;;;;5116481;27;20035;-71
2021/08/15 12:04:41;;;;;;;5.05;3.40;;;;;;;;;;5111515;27;20118;-71
2021/08/15 12:07:07;;;;;;;5.53;3.38;;;;;;;;;;5119815;27;20035;-71
2021/08/15 12:09:34;;;;;;;6.63;3.33;;;;;;;;;;5104714;27;20046;-71
2021/08/15 12:12:04;;;;;;;5.78;3.10;;;;;;;;;;5097933;27;20051;-71
2021/08/15 12:14:37;;;;;;;5.40;2.97;;;;;;;;;;5110264;27;20088;-71
2021/08/15 12:17:03;;;;;;;6.28;3.25;;;;;;;;;;5119853;27;20475;-71
2021/08/15 12:19:30;;;;;;;6.00;3.25;;;;;;;;;;5110950;27;20414;-71
2021/08/15 12:21:58;;;;;;;6.18;3.40;;;;;;;;;;5086709;27;20122;-71
2021/08/15 12:24:25;;;;;;;6.88;3.40;;;;;;;;;;5094497;27;20492;-71
2021/08/15 12:26:57;;;;;;;6.13;3.25;;;;;;;;;;5117733;27;20039;-72
2021/08/15 12:29:27;;;;;;;6.50;3.00;;;;;;;;;;5107638;27;20032;-71
2021/08/15 12:32:12;;;;;;;4.63;2.85;;;;;;;;;;5111715;27;20282;-71
2021/08/15 12:34:55;;;;;;;5.10;3.05;;;;;;;;;;5104281;27;20498;-71
2021/08/15 12:37:22;;;;;;;4.95;3.25;;;;;;;;;;5118965;27;20054;-71
2021/08/15 12:40:01;;;;;;;4.53;2.65;;;;;;;;;;5110937;27;20114;-71
2021/08/15 12:42:27;;;;;;;5.93;3.15;;;;;;;;;;5118139;27;20038;-71
2021/08/15 12:44:55;;;;;;;4.53;2.67;;;;;;;;;;5115033;27;20044;-71
2021/08/15 12:47:35;;;;;;;4.28;2.70;;;;;;;;;;5114010;27;20043;-70
2021/08/15 12:50:06;;;;;;;4.82;3.03;;;;;;;;;;5117278;27;20102;-70
2021/08/15 12:52:49;;;;;;;4.18;2.90;;;;;;;;;;5105869;27;20181;-70
2021/08/15 12:55:26;;;;;;;5.17;3.13;;;;;;;;;;5113336;27;20043;-71
2021/08/15 12:57:59;;;;;;;5.55;3.15;;;;;;;;;;5116404;27;20289;-71
2021/08/15 13:00:27;;;;;;;6.13;3.10;;;;;;;;;;5117103;27;20034;-71
2021/08/15 13:02:54;;;;;;;5.80;2.65;;;;;;;;;;5084697;27;20067;-71
2021/08/15 13:05:21;;;;;;;5.18;2.90;;;;;;;;;;5114137;27;20456;-71
2021/08/15 13:07:47;;;;;;;4.25;2.88;;;;;;;;;;5107905;27;20060;-71
2021/08/15 13:10:14;;;;;;;6.38;3.22;;;;;;;;;;5101735;27;20482;-71
2021/08/15 13:12:40;;;;;;;4.68;3.08;;;;;;;;;;5109138;27;20047;-71
2021/08/15 13:15:08;;;;;;;7.65;3.33;;;;;;;;;;5116367;27;20038;-71
2021/08/15 13:17:34;;;;;;;6.07;3.72;;;;;;;;;;5112233;27;20028;-70
2021/08/15 13:20:00;;;;;;;5.57;3.45;;;;;;;;;;5108079;27;20035;-70
2021/08/15 13:22:27;;;;;;;6.43;3.45;;;;;;;;;;5084523;28;20047;-70
2021/08/15 13:24:53;;;;;;;6.35;3.33;;;;;;;;;;5117909;27;20044;-70
2021/08/15 13:27:19;;;;;;;4.72;3.10;;;;;;;;;;5108704;27;20035;-70
2021/08/15 13:29:45;;;;;;;5.68;3.20;;;;;;;;;;5112001;27;20376;-70
2021/08/15 13:32:12;;;;;;;4.88;2.95;;;;;;;;;;5108327;27;20494;-70
2021/08/15 13:34:38;;;;;;;5.00;2.72;;;;;;;;;;5115192;27;20039;-70
2021/08/15 13:37:05;;;;;;;6.53;3.03;;;;;;;;;;5107770;27;20043;-70
2021/08/15 13:39:31;;;;;;;7.00;3.13;;;;;;;;;;5108691;27;20032;-71
2021/08/15 13:41:58;;;;;;;5.28;2.83;;;;;;;;;;5082491;27;20509;-71
2021/08/15 13:44:24;;;;;;;5.10;2.83;;;;;;;;;;5112945;27;20045;-70
2021/08/15 13:46:50;;;;;;;6.47;3.15;;;;;;;;;;5109454;27;20063;-70
2021/08/15 13:49:16;;;;;;;6.25;3.13;;;;;;;;;;5103529;27;20039;-70
2021/08/15 13:51:42;;;;;;;7.72;3.42;;;;;;;;;;5117333;27;20396;-70
2021/08/15 13:54:10;;;;;;;4.63;3.63;;;;;;;;;;5107960;27;20540;-70
2021/08/15 13:56:36;;;;;;;5.65;3.20;;;;;;;;;;5104588;27;20043;-70
2021/08/15 13:59:03;;;;;;;6.55;3.22;;;;;;;;;;5104760;27;20061;-71
2021/08/15 14:01:30;;;;;;;4.35;3.03;;;;;;;;;;5119200;27;20045;-70
2021/08/15 14:03:56;;;;;;;6.93;3.20;;;;;;;;;;5110201;27;20439;-70
2021/08/15 14:06:22;;;;;;;5.50;3.50;;;;;;;;;;5113831;27;20039;-70
2021/08/15 14:08:48;;;;;;;7.38;3.60;;;;;;;;;;5089740;28;20063;-70
2021/08/15 14:11:14;;;;;;;9.95;3.88;;;;;;;;;;5118163;27;20055;-70
2021/08/15 14:13:40;;;;;;;5.95;3.25;;;;;;;;;;5093945;27;20259;-70
2021/08/15 14:16:07;;;;;;;5.50;3.33;;;;;;;;;;5112127;27;20035;-70
2021/08/15 14:18:33;;;;;;;5.97;3.47;;;;;;;;;;5117566;27;20050;-70
2021/08/15 14:20:59;;;;;;;7.15;3.78;;;;;;;;;;5113129;27;20547;-70
2021/08/15 14:23:25;;;;;;;7.22;3.95;;;;;;;;;;5095724;27;20034;-70
2021/08/15 14:25:52;;;;;;;7.10;3.55;;;;;;;;;;5106084;27;20449;-70
2021/08/15 14:28:18;;;;;;;6.85;3.53;;;;;;;;;;5116855;27;20031;-70
2021/08/15 14:30:45;;;;;;;6.45;3.72;;;;;;;;;;5106971;27;20039;-70
2021/08/15 14:33:11;;;;;;;5.10;3.25;;;;;;;;;;5095578;28;20027;-70
2021/08/15 14:35:37;;;;;;;7.22;3.67;;;;;;;;;;5104787;28;20043;-70
2021/08/15 14:38:03;;;;;;;7.20;3.33;;;;;;;;;;5116561;27;20153;-71
2021/08/15 14:40:30;;;;;;;5.35;3.20;;;;;;;;;;5104302;27;20450;-70